Time;durP1;ratioP1;P1;durP2;ratioP2;P2;SDS_P1;SDS_P2;PMS_P1;PMS_P2;Temp;Humidity;BMP_temperature;BMP_pressure;BME280_temperature;BME280_humidity;BME280_pressure;Samples;Min_cycle;Max_cycle;Signal;HPM_P1;HPM_P2
2022/12/12 00:00:23;;;;;;;;;;;;;;;;;;5033307;28;19987;-76
2022/12/12 00:02:49;;;;;;;;;;;;;;;;;;5032906;28;19948;-76
2022/12/12 00:05:16;;;;;;;;;;;;;;;;;;5017398;28;19948;-76
2022/12/12 00:07:43;;;;;;;;;;;;;;;;;;5032720;28;19932;-76
2022/12/12 00:10:10;;;;;;;;;;;;;;;;;;5033332;28;19925;-77
2022/12/12 00:12:36;;;;;;;;;;;;;;;;;;5032365;28;20012;-77
2022/12/12 00:15:03;;;;;;;;;;;;;;;;;;5032771;28;20453;-77
2022/12/12 00:17:31;;;;;;;;;;;;;;;;;;5032882;28;19925;-77
2022/12/12 00:19:57;;;;;;;;;;;;;;;;;;5032874;28;20366;-77
2022/12/12 00:22:24;;;;;;;;;;;;;;;;;;5032413;28;20009;-77
2022/12/12 00:24:50;;;;;;;;;;;;;;;;;;5033052;28;19926;-76
2022/12/12 00:27:16;;;;;;;;;;;;;;;;;;5032785;28;20392;-77
2022/12/12 00:29:43;;;;;;;;;;;;;;;;;;5033094;28;19925;-77
2022/12/12 00:32:09;;;;;;;;;;;;;;;;;;5037412;28;20012;-76
2022/12/12 00:34:37;;;;;;;;;;;;;;;;;;5037907;28;19948;-76
2022/12/12 00:37:03;;;;;;;;;;;;;;;;;;5035330;28;20410;-76
2022/12/12 00:39:30;;;;;;;;;;;;;;;;;;5033287;28;19932;-76
2022/12/12 00:41:56;;;;;;;;;;;;;;;;;;5032836;28;19925;-76
2022/12/12 00:44:22;;;;;;;;;;;;;;;;;;5032837;28;19948;-76
2022/12/12 00:46:49;;;;;;;;;;;;;;;;;;5032456;28;19936;-76
2022/12/12 00:49:15;;;;;;;;;;;;;;;;;;5032501;28;20308;-76
2022/12/12 00:51:43;;;;;;;;;;;;;;;;;;5031885;28;19929;-76
2022/12/12 00:54:10;;;;;;;;;;;;;;;;;;5012262;28;19935;-76
2022/12/12 00:56:37;;;;;;;;;;;;;;;;;;5031148;28;19932;-76
2022/12/12 00:59:03;;;;;;;;;;;;;;;;;;5032560;28;20020;-76
2022/12/12 01:01:31;;;;;;;;;;;;;;;;;;5032035;28;19925;-76
2022/12/12 01:03:58;;;;;;;;;;;;;;;;;;5027305;28;19944;-76
2022/12/12 01:06:25;;;;;;;;;;;;;;;;;;5028472;28;19925;-76
2022/12/12 01:08:53;;;;;;;;;;;;;;;;;;5035029;28;19984;-77
2022/12/12 01:11:20;;;;;;;;;;;;;;;;;;5035547;28;20001;-77
2022/12/12 01:13:48;;;;;;;;;;;;;;;;;;5035215;28;19931;-77
2022/12/12 01:16:14;;;;;;;;;;;;;;;;;;5035990;28;20016;-77
2022/12/12 01:18:41;;;;;;;;;;;;;;;;;;5035542;28;20423;-77
2022/12/12 01:21:08;;;;;;;;;;;;;;;;;;5033537;28;19932;-76
2022/12/12 01:23:34;;;;;;;;;;;;;;;;;;5032244;28;19929;-77
2022/12/12 01:26:02;;;;;;;;;;;;;;;;;;5032460;28;20020;-77
2022/12/12 01:28:29;;;;;;;;;;;;;;;;;;5032387;28;20403;-76
2022/12/12 01:30:55;;;;;;;;;;;;;;;;;;5032559;28;19925;-77
2022/12/12 01:33:21;;;;;;;;;;;;;;;;;;5032141;28;19929;-77
2022/12/12 01:35:48;;;;;;;;;;;;;;;;;;5032212;28;19932;-77
2022/12/12 01:38:14;;;;;;;;;;;;;;;;;;5031491;28;19932;-77
2022/12/12 01:40:41;;;;;;;;;;;;;;;;;;5032546;28;19925;-77
2022/12/12 01:43:11;;;;;;;;;;;;;;;;;;5031751;28;19925;-76
2022/12/12 01:45:56;;;;;;;;;;;;;;;;;;5032664;28;19932;-77
2022/12/12 01:48:24;;;;;;;;;;;;;;;;;;5012597;28;19936;-77
2022/12/12 01:50:51;;;;;;;;;;;;;;;;;;5027284;28;19925;-77
2022/12/12 01:53:19;;;;;;;;;;;;;;;;;;5032034;28;19931;-77
2022/12/12 01:55:46;;;;;;;;;;;;;;;;;;5032242;28;20016;-76
2022/12/12 01:58:14;;;;;;;;;;;;;;;;;;5032408;28;19931;-77
2022/12/12 02:00:40;;;;;;;;;;;;;;;;;;5032352;28;19933;-77
2022/12/12 02:03:07;;;;;;;;;;;;;;;;;;5031516;28;19947;-76
2022/12/12 02:05:35;;;;;;;;;;;;;;;;;;5033584;28;19936;-76
2022/12/12 02:08:02;;;;;;;;;;;;;;;;;;5035353;28;19931;-76
2022/12/12 02:10:28;;;;;;;;;;;;;;;;;;5035302;28;20406;-76
2022/12/12 02:12:59;;;;;;;;;;;;;;;;;;5035990;28;19950;-76
2022/12/12 02:15:29;;;;;;;;;;;;;;;;;;5035373;28;20008;-76
2022/12/12 02:18:00;;;;;;;;;;;;;;;;;;5035091;28;19925;-76
2022/12/12 02:23:53;;;;;;;;;;;;;;;;;;5008861;28;20064;-76
2022/12/12 02:26:35;;;;;;;;;;;;;;;;;;5034732;28;19932;-76
2022/12/12 02:29:15;;;;;;;;;;;;;;;;;;5034603;28;20008;-76
2022/12/12 02:31:47;;;;;;;;;;;;;;;;;;5034526;28;19935;-76
2022/12/12 02:34:18;;;;;;;;;;;;;;;;;;5034561;28;19936;-76
2022/12/12 02:36:48;;;;;;;;;;;;;;;;;;5034282;28;20015;-76
2022/12/12 02:39:18;;;;;;;;;;;;;;;;;;5034230;28;19925;-76
2022/12/12 02:41:48;;;;;;;;;;;;;;;;;;5034579;28;19925;-76
2022/12/12 02:44:20;;;;;;;;;;;;;;;;;;5034346;28;20350;-76
2022/12/12 02:46:51;;;;;;;;;;;;;;;;;;5034471;28;20428;-76
2022/12/12 02:49:21;;;;;;;;;;;;;;;;;;5034689;28;19952;-76
2022/12/12 02:51:47;;;;;;;;;;;;;;;;;;5034095;28;19925;-76
2022/12/12 02:54:15;;;;;;;;;;;;;;;;;;5034491;28;19931;-76
2022/12/12 02:56:44;;;;;;;;;;;;;;;;;;5034546;28;20383;-77
2022/12/12 02:59:14;;;;;;;;;;;;;;;;;;5035087;28;20012;-77
2022/12/12 03:01:44;;;;;;;;;;;;;;;;;;5034708;28;19947;-76
2022/12/12 03:09:59;;;;;;;;;;;;;;;;;;5034162;28;19979;-76
2022/12/12 03:12:31;;;;;;;;;;;;;;;;;;5033777;28;19925;-76
2022/12/12 03:15:01;;;;;;;;;;;;;;;;;;5033914;28;20395;-76
2022/12/12 03:17:29;;;;;;;;;;;;;;;;;;5033559;28;19965;-76
2022/12/12 03:19:59;;;;;;;;;;;;;;;;;;5033969;28;19987;-76
2022/12/12 03:22:28;;;;;;;;;;;;;;;;;;5033207;28;19968;-76
2022/12/12 03:25:01;;;;;;;;;;;;;;;;;;5033667;28;20371;-76
2022/12/12 03:27:29;;;;;;;;;;;;;;;;;;5034169;28;19932;-76
2022/12/12 03:29:57;;;;;;;;;;;;;;;;;;5033951;28;19976;-76
2022/12/12 03:32:26;;;;;;;;;;;;;;;;;;5033698;28;20296;-76
2022/12/12 03:34:54;;;;;;;;;;;;;;;;;;5034153;28;20007;-76
2022/12/12 03:37:24;;;;;;;;;;;;;;;;;;5034197;28;20086;-77
2022/12/12 03:39:52;;;;;;;;;;;;;;;;;;5034644;28;19925;-76
2022/12/12 03:42:21;;;;;;;;;;;;;;;;;;5034148;28;20011;-77
2022/12/12 03:44:50;;;;;;;;;;;;;;;;;;5033972;28;20023;-76
2022/12/12 03:47:18;;;;;;;;;;;;;;;;;;5034031;28;20016;-76
2022/12/12 03:49:47;;;;;;;;;;;;;;;;;;5034265;28;19972;-76
2022/12/12 03:52:15;;;;;;;;;;;;;;;;;;5033750;28;19936;-76
2022/12/12 03:54:47;;;;;;;;;;;;;;;;;;5034023;28;19925;-77
2022/12/12 03:57:15;;;;;;;;;;;;;;;;;;5033757;28;20463;-76
2022/12/12 03:59:43;;;;;;;;;;;;;;;;;;5034282;28;19937;-77
2022/12/12 04:02:14;;;;;;;;;;;;;;;;;;5033763;28;20527;-77
2022/12/12 04:04:44;;;;;;;;;;;;;;;;;;5022762;28;19971;-76
2022/12/12 04:07:13;;;;;;;;;;;;;;;;;;5030798;28;19947;-77
2022/12/12 04:15:23;;;;;;;;;;;;;;;;;;5033995;28;19932;-76
2022/12/12 04:17:56;;;;;;;;;;;;;;;;;;5034203;28;19925;-77
2022/12/12 04:23:17;;;;;;;;;;;;;;;;;;5036303;28;19931;-77
2022/12/12 04:29:01;;;;;;;;;;;;;;;;;;5040206;28;20470;-76
2022/12/12 04:31:29;;;;;;;;;;;;;;;;;;5050908;28;19925;-76
2022/12/12 04:33:58;;;;;;;;;;;;;;;;;;5054371;28;19951;-76
2022/12/12 04:36:24;;;;;;;;;;;;;;;;;;5055527;28;19917;-77
2022/12/12 04:38:52;;;;;;;;;;;;;;;;;;5037346;28;20366;-76
2022/12/12 04:41:19;;;;;;;;;;;;;;;;;;5041646;28;20022;-75
2022/12/12 04:43:47;;;;;;;;;;;;;;;;;;5054392;28;19960;-76
2022/12/12 04:46:17;;;;;;;;;;;;;;;;;;5057446;28;19940;-76
2022/12/12 04:48:46;;;;;;;;;;;;;;;;;;5057863;28;19947;-76
2022/12/12 04:51:16;;;;;;;;;;;;;;;;;;5055995;28;20374;-76
2022/12/12 04:53:45;;;;;;;;;;;;;;;;;;5055626;28;20372;-75
2022/12/12 04:56:13;;;;;;;;;;;;;;;;;;5052863;28;19910;-75
2022/12/12 04:58:40;;;;;;;;;;;;;;;;;;5057226;28;19932;-75
2022/12/12 05:01:08;;;;;;;;;;;;;;;;;;5057335;28;19925;-76
2022/12/12 05:03:38;;;;;;;;;;;;;;;;;;5057015;28;19929;-77
2022/12/12 05:06:07;;;;;;;;;;;;;;;;;;5056018;28;19948;-76
2022/12/12 05:08:35;;;;;;;;;;;;;;;;;;5053825;28;19925;-77
2022/12/12 05:11:03;;;;;;;;;;;;;;;;;;5054566;28;19916;-77
2022/12/12 05:13:31;;;;;;;;;;;;;;;;;;5080772;22;19964;-54
2022/12/12 05:15:58;;;;;;;;;;;;;;;;;;5054214;28;19932;-50
2022/12/12 05:18:25;;;;;;;;;;;;;;;;;;5054091;28;19989;-50
2022/12/12 05:20:54;;;;;;;;;;;;;;;;;;5054090;28;20297;-48
2022/12/12 05:23:20;;;;;;;;;;;;;;;;;;5053267;28;20382;-49
2022/12/12 05:25:47;;;;;;;;;;;;;;;;;;5053384;28;19970;-48
2022/12/12 05:28:13;;;;;;;;;;;;;;;;;;5053349;28;20714;-49
2022/12/12 05:30:40;;;;;;;;;;;;;;;;;;5054278;28;19963;-49
2022/12/12 05:33:07;;;;;;;;;;;;;;;;;;5053723;28;20400;-50
2022/12/12 05:35:34;;;;;;;;;;;;;;;;;;5054055;28;19979;-48
2022/12/12 05:38:02;;;;;;;;;;;;;;;;;;5053597;28;19925;-48
2022/12/12 05:40:29;;;;;;;;;;;;;;;;;;5056237;28;19978;-51
2022/12/12 05:42:55;;;;;;;;;;;;;;;;;;5057373;28;19928;-50
2022/12/12 05:45:23;;;;;;;;;;;;;;;;;;5056457;28;19955;-50
2022/12/12 05:47:49;;;;;;;;;;;;;;;;;;5057349;28;20415;-49
2022/12/12 05:50:16;;;;;;;;;;;;;;;;;;5057357;28;19925;-48
2022/12/12 05:52:43;;;;;;;;;;;;;;;;;;5057892;28;20346;-49
2022/12/12 05:55:11;;;;;;;;;;;;;;;;;;5056793;28;19929;-49
2022/12/12 05:57:38;;;;;;;;;;;;;;;;;;5056335;28;19932;-50
2022/12/12 06:00:05;;;;;;;;;;;;;;;;;;5056945;28;19970;-50
2022/12/12 06:02:31;;;;;;;;;;;;;;;;;;5056787;28;19929;-50
2022/12/12 06:04:58;;;;;;;;;;;;;;;;;;5043698;28;19980;-48
2022/12/12 06:07:24;;;;;;;;;;;;;;;;;;5044921;28;20397;-48
2022/12/12 06:09:51;;;;;;;;;;;;;;;;;;5056412;28;19924;-50
2022/12/12 06:12:19;;;;;;;;;;;;;;;;;;5057043;28;19978;-51
2022/12/12 06:14:45;;;;;;;;;;;;;;;;;;5056180;28;19929;-48
2022/12/12 06:17:12;;;;;;;;;;;;;;;;;;5057145;28;19986;-52
2022/12/12 06:19:38;;;;;;;;;;;;;;;;;;5056412;28;20439;-49
2022/12/12 06:22:05;;;;;;;;;;;;;;;;;;5056888;28;20579;-48
2022/12/12 06:24:31;;;;;;;;;;;;;;;;;;5056083;28;20374;-55
2022/12/12 06:26:58;;;;;;;;;;;;;;;;;;5057288;28;19925;-48
2022/12/12 06:29:26;;;;;;;;;;;;;;;;;;5056092;28;19928;-49
2022/12/12 06:31:52;;;;;;;;;;;;;;;;;;5056388;28;19925;-48
2022/12/12 06:34:19;;;;;;;;;;;;;;;;;;5056851;28;20432;-51
2022/12/12 06:36:46;;;;;;;;;;;;;;;;;;5056381;28;20027;-51
2022/12/12 06:39:12;;;;;;;;;;;;;;;;;;5056315;28;19928;-49
2022/12/12 06:41:39;;;;;;;;;;;;;;;;;;5056665;28;19978;-49
2022/12/12 06:44:06;;;;;;;;;;;;;;;;;;5056173;28;19983;-49
2022/12/12 06:46:34;;;;;;;;;;;;;;;;;;5056176;28;19951;-49
2022/12/12 06:49:01;;;;;;;;;;;;;;;;;;5055978;28;19924;-49
2022/12/12 06:51:30;;;;;;;;;;;;;;;;;;5054927;28;20007;-48
2022/12/12 06:53:57;;;;;;;;;;;;;;;;;;5056142;28;20015;-52
2022/12/12 06:56:25;;;;;;;;;;;;;;;;;;5056817;28;19932;-48
2022/12/12 06:58:52;;;;;;;;;;;;;;;;;;5055899;28;19925;-49
2022/12/12 07:01:20;;;;;;;;;;;;;;;;;;5056067;28;20495;-49
2022/12/12 07:03:49;;;;;;;;;;;;;;;;;;5055689;28;20023;-48
2022/12/12 07:06:15;;;;;;;;;;;;;;;;;;5056043;28;19931;-51
2022/12/12 07:08:42;;;;;;;;;;;;;;;;;;5055920;28;19933;-49
2022/12/12 07:11:11;;;;;;;;;;;;;;;;;;5056055;28;19924;-49
2022/12/12 07:13:38;;;;;;;;;;;;;;;;;;5054836;28;19925;-50
2022/12/12 07:16:05;;;;;;;;;;;;;;;;;;5056262;28;19993;-49
2022/12/12 07:18:31;;;;;;;;;;;;;;;;;;5055261;28;19924;-50
2022/12/12 07:20:59;;;;;;;;;;;;;;;;;;5055327;28;20001;-49
2022/12/12 07:23:26;;;;;;;;;;;;;;;;;;5055354;28;19936;-49
2022/12/12 07:25:52;;;;;;;;;;;;;;;;;;5056309;28;19970;-49
2022/12/12 07:28:19;;;;;;;;;;;;;;;;;;5055524;28;20369;-48
2022/12/12 07:30:47;;;;;;;;;;;;;;;;;;5055524;28;19929;-51
2022/12/12 07:33:15;;;;;;;;;;;;;;;;;;5055135;28;19940;-49
2022/12/12 07:35:42;;;;;;;;;;;;;;;;;;5055926;28;20425;-47
2022/12/12 07:38:11;;;;;;;;;;;;;;;;;;5055137;28;19925;-48
2022/12/12 07:40:37;;;;;;;;;;;;;;;;;;5055049;28;19932;-51
2022/12/12 07:43:04;;;;;;;;;;;;;;;;;;5054225;28;20066;-47
2022/12/12 07:45:31;;;;;;;;;;;;;;;;;;5054968;28;19951;-48
2022/12/12 07:47:57;;;;;;;;;;;;;;;;;;5054498;28;20016;-48
2022/12/12 07:50:24;;;;;;;;;;;;;;;;;;5055032;28;20340;-47
2022/12/12 07:52:50;;;;;;;;;;;;;;;;;;5053831;28;19925;-48
2022/12/12 07:55:18;;;;;;;;;;;;;;;;;;5055024;28;19979;-48
2022/12/12 07:57:45;;;;;;;;;;;;;;;;;;5055027;28;19928;-51
2022/12/12 08:00:13;;;;;;;;;;;;;;;;;;5054999;28;19928;-47
2022/12/12 08:02:40;;;;;;;;;;;;;;;;;;5053248;28;19970;-47
2022/12/12 08:05:07;;;;;;;;;;;;;;;;;;5040558;28;20461;-48
2022/12/12 08:07:34;;;;;;;;;;;;;;;;;;5050072;28;19978;-52
2022/12/12 08:10:00;;;;;;;;;;;;;;;;;;5052887;28;19924;-47
2022/12/12 08:12:30;;;;;;;;;;;;;;;;;;5053193;28;20015;-48
2022/12/12 08:14:57;;;;;;;;;;;;;;;;;;5052895;28;20404;-49
2022/12/12 08:17:23;;;;;;;;;;;;;;;;;;5052979;28;19982;-49
2022/12/12 08:19:50;;;;;;;;;;;;;;;;;;5052362;28;19924;-50
2022/12/12 08:22:17;;;;;;;;;;;;;;;;;;5051551;28;19932;-48
2022/12/12 08:24:43;;;;;;;;;;;;;;;;;;5052584;28;19932;-51
2022/12/12 08:27:10;;;;;;;;;;;;;;;;;;5052411;28;20345;-51
2022/12/12 08:29:38;;;;;;;;;;;;;;;;;;5052490;28;20294;-50
2022/12/12 08:32:04;;;;;;;;;;;;;;;;;;5052368;28;19956;-51
2022/12/12 08:34:31;;;;;;;;;;;;;;;;;;5052427;28;19970;-53
2022/12/12 08:36:58;;;;;;;;;;;;;;;;;;5053587;28;20409;-51
2022/12/12 08:39:25;;;;;;;;;;;;;;;;;;5052096;28;19925;-50
2022/12/12 08:41:52;;;;;;;;;;;;;;;;;;5052587;28;20078;-49
2022/12/12 08:44:19;;;;;;;;;;;;;;;;;;5041483;28;19963;-50
2022/12/12 08:46:47;;;;;;;;;;;;;;;;;;5050420;28;19925;-51
2022/12/12 08:49:14;;;;;;;;;;;;;;;;;;5050733;28;20342;-49
2022/12/12 08:51:41;;;;;;;;;;;;;;;;;;5050796;28;19929;-48
2022/12/12 08:54:08;;;;;;;;;;;;;;;;;;5050173;28;19925;-49
2022/12/12 08:56:35;;;;;;;;;;;;;;;;;;5050422;28;20015;-50
2022/12/12 08:59:02;;;;;;;;;;;;;;;;;;5050440;28;20469;-49
2022/12/12 09:01:28;;;;;;;;;;;;;;;;;;5048615;28;19987;-50
2022/12/12 09:03:57;;;;;;;;;;;;;;;;;;5045159;28;19932;-50
2022/12/12 09:06:24;;;;;;;;;;;;;;;;;;5035701;28;19929;-49
2022/12/12 09:08:51;;;;;;;;;;;;;;;;;;5041499;28;19932;-51
2022/12/12 09:11:18;;;;;;;;;;;;;;;;;;5036388;28;19929;-51
2022/12/12 09:13:44;;;;;;;;;;;;;;;;;;5059013;28;19979;-49
2022/12/12 09:16:12;;;;;;;;;;;;;;;;;;5054602;28;19924;-49
2022/12/12 09:18:38;;;;;;;;;;;;;;;;;;5053432;28;19925;-47
2022/12/12 09:21:06;;;;;;;;;;;;;;;;;;5056749;28;19929;-47
2022/12/12 09:23:33;;;;;;;;;;;;;;;;;;5058538;28;20301;-49
2022/12/12 09:26:04;;;;;;;;;;;;;;;;;;5054069;28;19933;-59
2022/12/12 09:28:30;;;;;;;;;;;;;;;;;;5054265;28;19925;-62
2022/12/12 09:30:57;;;;;;;;;;;;;;;;;;5054414;28;19928;-49
2022/12/12 09:33:24;;;;;;;;;;;;;;;;;;5054153;28;19985;-48
2022/12/12 09:35:56;;;;;;;;;;;;;;;;;;5054500;28;19924;-49
2022/12/12 09:38:24;;;;;;;;;;;;;;;;;;5053942;28;19924;-49
2022/12/12 09:40:55;;;;;;;;;;;;;;;;;;5053943;28;19924;-48
2022/12/12 09:43:24;;;;;;;;;;;;;;;;;;5054049;28;20021;-48
2022/12/12 09:45:51;;;;;;;;;;;;;;;;;;5048279;28;19925;-50
2022/12/12 09:48:24;;;;;;;;;;;;;;;;;;5054063;28;19982;-52
2022/12/12 09:50:50;;;;;;;;;;;;;;;;;;5053869;28;20289;-48
2022/12/12 09:53:18;;;;;;;;;;;;;;;;;;5054778;28;19928;-49
2022/12/12 09:55:50;;;;;;;;;;;;;;;;;;5063333;28;19928;-48
2022/12/12 09:58:20;;;;;;;;;;;;;;;;;;5057207;28;20433;-49
2022/12/12 10:00:48;;;;;;;;;;;;;;;;;;5064070;28;19959;-48
2022/12/12 10:03:20;;;;;;;;;;;;;;;;;;5058401;28;19929;-47
2022/12/12 10:05:52;;;;;;;;;;;;;;;;;;5050131;28;19975;-49
2022/12/12 10:08:20;;;;;;;;;;;;;;;;;;5057332;28;20393;-52
2022/12/12 10:10:51;;;;;;;;;;;;;;;;;;5064151;28;19932;-51
2022/12/12 10:13:19;;;;;;;;;;;;;;;;;;5052866;28;19925;-50
2022/12/12 10:15:46;;;;;;;;;;;;;;;;;;5052826;28;19928;-48
2022/12/12 10:18:14;;;;;;;;;;;;;;;;;;5052551;28;19925;-48
2022/12/12 10:20:45;;;;;;;;;;;;;;;;;;5053103;28;19925;-49
2022/12/12 10:23:16;;;;;;;;;;;;;;;;;;5052838;28;19970;-52
2022/12/12 10:25:46;;;;;;;;;;;;;;;;;;5051300;28;19997;-51
2022/12/12 10:28:15;;;;;;;;;;;;;;;;;;5052464;28;19971;-47
2022/12/12 10:30:51;;;;;;;;;;;;;;;;;;5052261;28;19925;-49
2022/12/12 10:33:24;;;;;;;;;;;;;;;;;;5050532;28;19925;-48
2022/12/12 10:35:54;;;;;;;;;;;;;;;;;;5047414;28;19925;-52
2022/12/12 10:38:30;;;;;;;;;;;;;;;;;;5051022;28;19925;-49
2022/12/12 10:40:59;;;;;;;;;;;;;;;;;;5050777;28;19928;-49
2022/12/12 10:43:29;;;;;;;;;;;;;;;;;;5048356;28;20390;-46
2022/12/12 10:46:07;;;;;;;;;;;;;;;;;;5047765;28;20283;-49
2022/12/12 10:48:34;;;;;;;;;;;;;;;;;;5049388;28;19955;-47
2022/12/12 10:51:03;;;;;;;;;;;;;;;;;;5045875;28;19925;-49
2022/12/12 10:53:30;;;;;;;;;;;;;;;;;;5051570;28;20209;-47
2022/12/12 10:56:00;;;;;;;;;;;;;;;;;;5043995;28;19925;-47
2022/12/12 10:58:35;;;;;;;;;;;;;;;;;;5046127;28;19970;-48
2022/12/12 11:01:02;;;;;;;;;;;;;;;;;;5051953;28;19972;-50
2022/12/12 11:03:32;;;;;;;;;;;;;;;;;;5050882;28;19958;-48
2022/12/12 11:06:03;;;;;;;;;;;;;;;;;;5046258;28;19978;-48
2022/12/12 11:08:31;;;;;;;;;;;;;;;;;;5051619;28;19933;-47
2022/12/12 11:11:00;;;;;;;;;;;;;;;;;;5051885;28;20302;-47
2022/12/12 11:13:28;;;;;;;;;;;;;;;;;;5051777;28;19931;-53
2022/12/12 11:15:57;;;;;;;;;;;;;;;;;;5061691;28;19928;-49
2022/12/12 11:18:24;;;;;;;;;;;;;;;;;;5052202;28;19929;-48
2022/12/12 11:20:52;;;;;;;;;;;;;;;;;;5051721;28;19932;-47
2022/12/12 11:23:19;;;;;;;;;;;;;;;;;;5051484;28;19925;-48
2022/12/12 11:25:53;;;;;;;;;;;;;;;;;;5052064;28;19924;-48
2022/12/12 11:28:23;;;;;;;;;;;;;;;;;;5052173;28;19978;-51
2022/12/12 11:30:52;;;;;;;;;;;;;;;;;;5052439;28;19929;-47
2022/12/12 11:33:21;;;;;;;;;;;;;;;;;;5052107;28;20031;-52
2022/12/12 11:35:53;;;;;;;;;;;;;;;;;;5052677;28;19963;-51
2022/12/12 11:38:21;;;;;;;;;;;;;;;;;;5049301;28;19948;-49
2022/12/12 11:40:55;;;;;;;;;;;;;;;;;;5052432;28;19967;-48
2022/12/12 11:43:24;;;;;;;;;;;;;;;;;;5046021;28;20682;-50
2022/12/12 11:46:02;;;;;;;;;;;;;;;;;;5051888;28;20474;-49
2022/12/12 11:48:31;;;;;;;;;;;;;;;;;;5050791;28;20465;-50
2022/12/12 11:50:58;;;;;;;;;;;;;;;;;;5046162;28;20437;-48
2022/12/12 11:53:25;;;;;;;;;;;;;;;;;;5051597;28;20374;-52
2022/12/12 11:55:57;;;;;;;;;;;;;;;;;;5049788;28;20024;-48
2022/12/12 11:58:26;;;;;;;;;;;;;;;;;;5045682;28;19944;-51
2022/12/12 12:00:57;;;;;;;;;;;;;;;;;;5047302;28;19925;-50
2022/12/12 12:03:37;;;;;;;;;;;;;;;;;;5051544;28;19925;-51
2022/12/12 12:06:08;;;;;;;;;;;;;;;;;;5051320;28;19932;-52
2022/12/12 12:08:41;;;;;;;;;;;;;;;;;;5047632;28;19925;-48
2022/12/12 12:11:14;;;;;;;;;;;;;;;;;;5049162;28;20019;-50
2022/12/12 12:13:48;;;;;;;;;;;;;;;;;;5049217;28;19929;-52
2022/12/12 12:16:18;;;;;;;;;;;;;;;;;;5052254;28;19925;-53
2022/12/12 12:18:55;;;;;;;;;;;;;;;;;;5052166;28;20364;-48
2022/12/12 12:21:27;;;;;;;;;;;;;;;;;;5050331;28;19979;-50
2022/12/12 12:23:59;;;;;;;;;;;;;;;;;;5051504;28;19970;-50
2022/12/12 12:26:32;;;;;;;;;;;;;;;;;;5036266;28;19986;-49
2022/12/12 12:29:07;;;;;;;;;;;;;;;;;;5050720;28;19978;-50
2022/12/12 12:31:42;;;;;;;;;;;;;;;;;;5051104;28;20023;-47
2022/12/12 12:34:17;;;;;;;;;;;;;;;;;;5056264;28;20015;-48
2022/12/12 12:36:50;;;;;;;;;;;;;;;;;;5052024;28;19925;-48
2022/12/12 12:39:24;;;;;;;;;;;;;;;;;;5051381;28;19951;-46
2022/12/12 12:41:57;;;;;;;;;;;;;;;;;;5051258;28;19924;-48
2022/12/12 12:44:30;;;;;;;;;;;;;;;;;;5050930;28;19924;-47
2022/12/12 12:46:59;;;;;;;;;;;;;;;;;;5050334;28;20308;-48
2022/12/12 12:49:29;;;;;;;;;;;;;;;;;;5060357;28;19931;-51
2022/12/12 12:51:57;;;;;;;;;;;;;;;;;;5070222;28;19958;-48
2022/12/12 12:54:25;;;;;;;;;;;;;;;;;;5068938;28;20305;-53
2022/12/12 12:56:54;;;;;;;;;;;;;;;;;;5046578;28;20362;-52
2022/12/12 12:59:22;;;;;;;;;;;;;;;;;;5038936;28;19924;-48
2022/12/12 13:01:52;;;;;;;;;;;;;;;;;;5048001;28;19924;-53
2022/12/12 13:04:20;;;;;;;;;;;;;;;;;;5048194;28;20470;-48
2022/12/12 13:06:51;;;;;;;;;;;;;;;;;;5049297;28;19972;-49
2022/12/12 13:09:34;;;;;;;;;;;;;;;;;;5050782;28;19940;-51
2022/12/12 13:12:03;;;;;;;;;;;;;;;;;;5045285;28;19928;-49
2022/12/12 13:14:37;;;;;;;;;;;;;;;;;;5052649;28;20332;-48
2022/12/12 13:17:05;;;;;;;;;;;;;;;;;;5063372;28;20375;-50
2022/12/12 13:19:36;;;;;;;;;;;;;;;;;;5048798;28;20341;-56
2022/12/12 13:22:08;;;;;;;;;;;;;;;;;;5031495;28;19933;-51
2022/12/12 13:24:40;;;;;;;;;;;;;;;;;;5031094;28;20379;-47
2022/12/12 13:27:12;;;;;;;;;;;;;;;;;;5031517;28;20341;-58
2022/12/12 13:29:42;;;;;;;;;;;;;;;;;;5049933;28;20462;-50
2022/12/12 13:32:27;;;;;;;;;;;;;;;;;;5049928;28;19929;-50
2022/12/12 13:34:55;;;;;;;;;;;;;;;;;;5050249;28;19931;-50
2022/12/12 13:37:23;;;;;;;;;;;;;;;;;;5049313;28;19935;-53
2022/12/12 13:39:58;;;;;;;;;;;;;;;;;;5060164;28;20007;-50
2022/12/12 13:42:24;;;;;;;;;;;;;;;;;;5070296;28;20369;-49
2022/12/12 13:44:51;;;;;;;;;;;;;;;;;;5054174;28;19937;-49
2022/12/12 13:47:35;;;;;;;;;;;;;;;;;;5062663;28;19959;-47
2022/12/12 13:50:05;;;;;;;;;;;;;;;;;;5043764;28;19924;-51
2022/12/12 13:52:34;;;;;;;;;;;;;;;;;;5045504;28;20437;-53
2022/12/12 13:55:16;;;;;;;;;;;;;;;;;;5049022;28;19956;-53
2022/12/12 13:58:04;;;;;;;;;;;;;;;;;;5041104;28;20548;-55
2022/12/12 14:00:31;;;;;;;;;;;;;;;;;;5043856;28;19933;-54
2022/12/12 14:02:59;;;;;;;;;;;;;;;;;;5034081;28;19925;-50
2022/12/12 14:05:27;;;;;;;;;;;;;;;;;;5038290;28;20370;-51
2022/12/12 14:07:58;;;;;;;;;;;;;;;;;;5054259;28;19944;-53
2022/12/12 14:10:26;;;;;;;;;;;;;;;;;;5054259;28;19928;-48
2022/12/12 14:12:53;;;;;;;;;;;;;;;;;;5054025;28;19928;-52
2022/12/12 14:15:21;;;;;;;;;;;;;;;;;;5053431;28;20400;-49
2022/12/12 14:17:52;;;;;;;;;;;;;;;;;;5053937;28;19925;-51
2022/12/12 14:20:27;;;;;;;;;;;;;;;;;;5053748;28;20020;-49
2022/12/12 14:23:23;;;;;;;;;;;;;;;;;;5044083;28;19967;-51
2022/12/12 14:25:51;;;;;;;;;;;;;;;;;;5040409;28;19979;-50
2022/12/12 14:28:22;;;;;;;;;;;;;;;;;;5053351;28;19928;-51
2022/12/12 14:30:53;;;;;;;;;;;;;;;;;;5053627;28;19937;-52
2022/12/12 14:33:36;;;;;;;;;;;;;;;;;;5053298;28;20365;-52
2022/12/12 14:36:05;;;;;;;;;;;;;;;;;;5053975;28;19978;-51
2022/12/12 14:38:54;;;;;;;;;;;;;;;;;;5053644;28;19925;-51
2022/12/12 14:41:33;;;;;;;;;;;;;;;;;;5053946;28;19933;-52
2022/12/12 14:44:05;;;;;;;;;;;;;;;;;;5053961;28;19971;-55
2022/12/12 14:46:43;;;;;;;;;;;;;;;;;;5054119;28;19924;-58
2022/12/12 14:49:16;;;;;;;;;;;;;;;;;;5052851;28;19931;-53
2022/12/12 14:51:46;;;;;;;;;;;;;;;;;;5051382;28;19937;-55
2022/12/12 14:54:20;;;;;;;;;;;;;;;;;;5051733;28;19935;-53
2022/12/12 14:59:34;;;;;;;;;;;;;;;;;;5048114;28;20370;-55
2022/12/12 15:02:07;;;;;;;;;;;;;;;;;;5048667;28;19994;-53
2022/12/12 15:04:37;;;;;;;;;;;;;;;;;;5047476;28;20443;-49
2022/12/12 15:07:04;;;;;;;;;;;;;;;;;;5046128;28;19927;-51
2022/12/12 15:09:33;;;;;;;;;;;;;;;;;;5049000;28;19925;-53
2022/12/12 15:12:17;;;;;;;;;;;;;;;;;;5047023;28;19944;-57
2022/12/12 15:14:52;;;;;;;;;;;;;;;;;;5051825;28;19925;-52
2022/12/12 15:17:20;;;;;;;;;;;;;;;;;;5053864;28;19931;-49
2022/12/12 15:19:49;;;;;;;;;;;;;;;;;;5053067;28;19925;-54
2022/12/12 15:22:19;;;;;;;;;;;;;;;;;;5051608;28;19935;-53
2022/12/12 15:24:47;;;;;;;;;;;;;;;;;;5052275;28;19925;-53
2022/12/12 15:27:18;;;;;;;;;;;;;;;;;;5048541;28;19932;-53
2022/12/12 15:29:44;;;;;;;;;;;;;;;;;;5053283;28;20386;-52
2022/12/12 15:32:16;;;;;;;;;;;;;;;;;;5052147;28;19924;-55
2022/12/12 15:34:46;;;;;;;;;;;;;;;;;;5053104;28;19929;-52
2022/12/12 15:37:20;;;;;;;;;;;;;;;;;;5053361;28;19925;-57
2022/12/12 15:39:56;;;;;;;;;;;;;;;;;;5052592;28;19925;-52
2022/12/12 15:42:23;;;;;;;;;;;;;;;;;;5052263;28;19983;-55
2022/12/12 15:44:51;;;;;;;;;;;;;;;;;;5050619;28;19932;-52
2022/12/12 15:47:19;;;;;;;;;;;;;;;;;;5052632;28;19931;-48
2022/12/12 15:49:46;;;;;;;;;;;;;;;;;;5052505;28;19924;-51
2022/12/12 15:52:18;;;;;;;;;;;;;;;;;;5058877;28;19924;-53
2022/12/12 15:54:46;;;;;;;;;;;;;;;;;;5072504;28;19924;-52
2022/12/12 15:57:18;;;;;;;;;;;;;;;;;;5072687;28;19939;-53
2022/12/12 15:59:45;;;;;;;;;;;;;;;;;;5072739;28;19924;-56
2022/12/12 16:02:22;;;;;;;;;;;;;;;;;;5065886;28;19952;-54
2022/12/12 16:04:53;;;;;;;;;;;;;;;;;;5051152;28;20414;-50
2022/12/12 16:07:21;;;;;;;;;;;;;;;;;;5052653;28;19971;-50
2022/12/12 16:09:57;;;;;;;;;;;;;;;;;;5052135;28;20039;-53
2022/12/12 16:12:39;;;;;;;;;;;;;;;;;;5052657;28;19928;-53
2022/12/12 16:15:19;;;;;;;;;;;;;;;;;;5048424;28;19925;-52
2022/12/12 16:17:57;;;;;;;;;;;;;;;;;;5060633;28;19933;-56
2022/12/12 16:20:24;;;;;;;;;;;;;;;;;;5043361;28;20398;-52
2022/12/12 16:22:50;;;;;;;;;;;;;;;;;;5051273;28;19951;-51
2022/12/12 16:25:18;;;;;;;;;;;;;;;;;;5051669;28;19933;-52
2022/12/12 16:27:45;;;;;;;;;;;;;;;;;;5052210;28;19929;-51
2022/12/12 16:30:12;;;;;;;;;;;;;;;;;;5052192;28;20424;-49
2022/12/12 16:32:40;;;;;;;;;;;;;;;;;;5053493;28;19925;-50
2022/12/12 16:35:07;;;;;;;;;;;;;;;;;;5050274;28;19924;-52
2022/12/12 16:37:34;;;;;;;;;;;;;;;;;;5048195;28;20007;-55
2022/12/12 16:40:00;;;;;;;;;;;;;;;;;;5047779;28;20417;-52
2022/12/12 16:42:27;;;;;;;;;;;;;;;;;;5051923;28;19978;-50
2022/12/12 16:44:54;;;;;;;;;;;;;;;;;;5051574;28;19932;-53
2022/12/12 16:47:22;;;;;;;;;;;;;;;;;;5051523;28;20385;-51
2022/12/12 16:49:50;;;;;;;;;;;;;;;;;;5051706;28;19978;-52
2022/12/12 16:52:18;;;;;;;;;;;;;;;;;;5052061;28;19971;-55
2022/12/12 16:54:45;;;;;;;;;;;;;;;;;;5051770;28;19963;-48
2022/12/12 16:57:12;;;;;;;;;;;;;;;;;;5051503;28;20333;-55
2022/12/12 16:59:38;;;;;;;;;;;;;;;;;;5048443;28;19971;-52
2022/12/12 17:02:10;;;;;;;;;;;;;;;;;;5048768;28;19990;-52
2022/12/12 17:04:36;;;;;;;;;;;;;;;;;;5039687;28;19979;-51
2022/12/12 17:07:06;;;;;;;;;;;;;;;;;;5048923;28;19925;-51
2022/12/12 17:09:33;;;;;;;;;;;;;;;;;;5050600;28;20449;-51
2022/12/12 17:12:00;;;;;;;;;;;;;;;;;;5047626;28;19932;-52
2022/12/12 17:14:26;;;;;;;;;;;;;;;;;;5047520;28;19979;-56
2022/12/12 17:16:53;;;;;;;;;;;;;;;;;;5046273;28;19924;-50
2022/12/12 17:19:20;;;;;;;;;;;;;;;;;;5050763;28;20051;-50
2022/12/12 17:21:46;;;;;;;;;;;;;;;;;;5050508;28;20015;-51